createdAt,value
2018-11-03T14:28:05.858Z,95961.30
2018-11-03T14:30:31.791Z,95961.65
2018-11-03T14:32:57.809Z,95965.08
2018-11-03T14:35:23.816Z,95962.59
2018-11-03T14:37:49.801Z,95963.97
2018-11-03T14:40:15.836Z,95969.33
2018-11-03T14:42:41.831Z,95976.54
2018-11-03T14:45:07.880Z,95974.12
2018-11-03T14:47:33.863Z,95960.36
2018-11-03T14:49:59.846Z,95975.56
2018-11-03T14:52:25.870Z,95976.53
2018-11-03T14:54:51.844Z,95974.98
2018-11-03T14:57:17.849Z,95976.94
2018-11-03T14:59:43.838Z,95982.45
2018-11-03T15:02:09.840Z,95988.17
2018-11-03T15:04:35.858Z,95986.87
2018-11-03T15:07:01.863Z,95988.09
2018-11-03T15:09:27.875Z,95993.27
2018-11-03T15:11:53.887Z,95991.33
2018-11-03T15:14:20.063Z,95986.13
2018-11-03T15:16:45.950Z,95991.48
2018-11-03T15:19:11.952Z,95985.16
2018-11-03T15:21:37.930Z,95999.87
2018-11-03T15:24:03.942Z,95998.98
2018-11-03T15:26:29.953Z,96003.59
2018-11-03T15:28:55.961Z,96008.47
2018-11-03T15:31:21.967Z,96015.42
2018-11-03T15:33:47.951Z,96015.34
2018-11-03T15:36:13.943Z,96014.53
2018-11-03T15:38:39.945Z,96014.19
2018-11-03T15:41:05.956Z,96016.87
2018-11-03T15:43:32.000Z,96010.14
2018-11-03T15:45:58.059Z,96020.73
2018-11-03T15:48:24.047Z,96022.22
2018-11-03T15:50:50.060Z,96019.47
2018-11-03T15:53:16.043Z,96018.25
2018-11-03T15:55:42.061Z,96015.94
2018-11-03T15:58:08.015Z,96020.22
2018-11-03T16:00:34.041Z,96022.41
2018-11-03T16:03:00.049Z,96031.06
2018-11-03T16:05:26.070Z,96032.19
2018-11-03T16:07:52.057Z,96035.09
2018-11-03T16:10:18.091Z,96029.36
2018-11-03T16:12:44.109Z,96029.10
2018-11-03T16:15:10.075Z,96036.39
2018-11-03T16:17:36.142Z,96034.86
2018-11-03T16:20:02.166Z,96038.02
2018-11-03T16:22:28.276Z,96039.39
2018-11-03T16:24:54.298Z,96043.11
2018-11-03T16:27:20.285Z,96042.22
2018-11-03T16:29:46.269Z,96041.14
2018-11-03T16:32:12.316Z,96047.31
2018-11-03T16:34:38.270Z,96048.36
2018-11-03T16:37:04.314Z,96054.41
2018-11-03T16:39:30.307Z,96057.02
2018-11-03T16:41:56.300Z,96059.44
2018-11-03T16:44:22.283Z,96065.34
2018-11-03T16:46:48.297Z,96069.06
2018-11-03T16:49:14.333Z,96068.28
2018-11-03T16:51:40.400Z,96069.88
2018-11-03T16:54:06.387Z,96065.12
2018-11-03T16:56:32.382Z,96068.58
2018-11-03T16:58:58.390Z,96070.29
2018-11-03T17:01:24.399Z,96069.14
2018-11-03T17:03:51.514Z,96072.30
2018-11-03T17:06:17.533Z,96069.55
2018-11-03T17:08:43.551Z,96080.66
2018-11-03T17:11:09.616Z,96073.59
2018-11-03T17:13:35.633Z,96073.45
2018-11-03T17:16:01.622Z,96074.09
2018-11-03T17:18:27.671Z,96075.80
2018-11-03T17:20:53.660Z,96075.53
2018-11-03T17:23:19.746Z,96070.84
2018-11-03T17:25:45.642Z,96074.80
2018-11-03T17:28:11.627Z,96078.44
2018-11-03T17:30:37.659Z,96076.50
2018-11-03T17:33:03.659Z,96076.50
2018-11-03T17:35:29.688Z,96078.36
2018-11-03T17:37:55.696Z,96078.28
2018-11-03T17:40:21.707Z,96075.13
2018-11-03T17:42:47.723Z,96078.03
2018-11-03T17:45:13.718Z,96077.47
2018-11-03T17:47:39.737Z,96076.98
2018-11-03T17:50:05.755Z,96078.77
2018-11-03T17:52:31.780Z,96074.16
2018-11-03T17:54:57.868Z,96083.72
2018-11-03T17:57:23.756Z,96082.64
2018-11-03T17:59:49.808Z,96082.41
2018-11-03T18:02:16.078Z,96084.34
2018-11-03T18:04:47.282Z,96081.78
2018-11-03T18:07:13.318Z,96089.70
2018-11-03T18:09:39.309Z,96079.52
2018-11-03T18:12:05.339Z,96086.95
2018-11-03T18:14:31.360Z,96090.26
2018-11-03T18:16:57.387Z,96088.06
2018-11-03T18:19:23.383Z,96093.57
2018-11-03T18:21:49.426Z,96096.98
2018-11-03T18:24:15.414Z,96094.80
2018-11-03T18:26:41.658Z,96099.08
2018-11-03T18:29:14.213Z,96102.12
2018-11-03T18:31:40.221Z,96096.95
2018-11-03T18:34:06.704Z,96105.47
2018-11-03T18:36:32.864Z,96103.38
2018-11-03T18:39:06.950Z,96103.53
2018-11-03T18:41:32.976Z,96106.28
2018-11-03T18:43:59.750Z,96110.81
2018-11-03T18:46:27.189Z,96111.30
2018-11-03T18:48:53.164Z,96120.55
2018-11-03T18:51:21.675Z,96121.26
2018-11-03T18:53:47.953Z,96121.59
2018-11-03T18:56:16.929Z,96129.52
2018-11-03T18:58:43.464Z,96129.59
2018-11-03T19:01:09.639Z,96130.41
2018-11-03T19:03:35.720Z,96145.06
2018-11-03T19:06:01.888Z,96141.82
2018-11-03T19:08:28.386Z,96144.72
2018-11-03T19:10:54.509Z,96142.64
2018-11-03T19:13:20.516Z,96147.80
2018-11-03T19:15:46.904Z,96145.94
2018-11-03T19:18:12.897Z,96147.17
2018-11-03T19:20:39.604Z,96145.30
2018-11-03T19:23:05.670Z,96146.42
2018-11-03T19:25:31.720Z,96141.17
2018-11-03T19:27:58.330Z,96145.45
2018-11-03T19:30:24.332Z,96149.09
2018-11-03T19:32:50.278Z,96155.00
2018-11-03T19:35:16.290Z,96157.75
2018-11-03T19:37:42.280Z,96158.49
2018-11-03T19:40:08.291Z,96158.90
2018-11-03T19:42:34.277Z,96157.93
2018-11-03T19:45:00.353Z,96158.00
2018-11-03T19:47:26.364Z,96160.61
2018-11-03T19:49:52.377Z,96157.77
2018-11-03T19:52:18.363Z,96159.56
2018-11-03T19:54:44.592Z,96169.66
2018-11-03T19:57:10.577Z,96165.36
2018-11-03T19:59:36.654Z,96168.70
2018-11-03T20:02:02.771Z,96170.48
2018-11-03T20:04:28.757Z,96169.48
2018-11-03T20:06:54.780Z,96168.84
2018-11-03T20:09:20.761Z,96176.13
2018-11-03T20:11:46.778Z,96177.66
2018-11-03T20:14:12.772Z,96175.25
2018-11-03T20:16:38.761Z,96176.21
2018-11-03T20:19:04.787Z,96178.33
2018-11-03T20:21:30.828Z,96179.84
2018-11-03T20:23:56.776Z,96173.61
2018-11-03T20:26:22.863Z,96179.03
2018-11-03T20:28:48.841Z,96172.97
2018-11-03T20:31:14.867Z,96177.28
2018-11-03T20:33:40.847Z,96179.52
2018-11-03T20:36:06.834Z,96177.73
2018-11-03T20:38:32.826Z,96172.16
2018-11-03T20:40:59.132Z,96164.49
2018-11-03T20:43:25.122Z,96176.05
2018-11-03T20:45:51.138Z,96170.96
2018-11-03T20:48:17.145Z,96169.03
2018-11-03T20:50:43.138Z,96169.81
2018-11-03T20:53:09.147Z,96169.59
2018-11-03T20:55:35.161Z,96168.77
2018-11-03T20:58:01.166Z,96170.55
2018-11-03T21:00:27.157Z,96164.64
2018-11-03T21:02:53.166Z,96163.27
2018-11-03T21:05:19.162Z,96169.59
2018-11-03T21:07:45.149Z,96167.95
2018-11-03T21:10:14.970Z,96171.44
2018-11-03T21:12:40.955Z,96174.04
2018-11-03T21:15:06.955Z,96172.25
2018-11-03T21:17:33.006Z,96164.00
2018-11-03T21:19:59.004Z,96169.24
2018-11-03T21:22:25.024Z,96165.52
2018-11-03T21:24:51.005Z,96168.34
2018-11-03T21:27:16.985Z,96167.41
2018-11-03T21:29:43.016Z,96168.29
2018-11-03T21:32:09.096Z,96167.24
2018-11-03T21:34:35.062Z,96167.95
2018-11-03T21:37:01.065Z,96162.63
2018-11-03T21:39:27.117Z,96161.00
2018-11-03T21:41:53.125Z,96160.42
2018-11-03T21:44:19.283Z,96161.91
2018-11-03T21:46:45.291Z,96160.27
2018-11-03T21:49:12.868Z,96156.14
2018-11-03T21:51:38.877Z,96148.77
2018-11-03T21:54:04.908Z,96145.06
2018-11-03T21:56:30.919Z,96152.11
2018-11-03T21:58:56.933Z,96143.86
2018-11-03T22:01:22.979Z,96151.15
2018-11-03T22:03:51.686Z,96145.65
2018-11-03T22:06:17.776Z,96145.15
2018-11-03T22:08:43.720Z,96141.27
2018-11-03T22:11:09.704Z,96136.63
2018-11-03T22:13:35.723Z,96136.70
2018-11-03T22:16:01.776Z,96129.75
2018-11-03T22:18:27.695Z,96130.79
2018-11-03T22:20:53.680Z,96127.08
2018-11-03T22:23:19.729Z,96129.09
2018-11-03T22:25:45.743Z,96128.45
2018-11-03T22:28:11.766Z,96131.28
2018-11-03T22:30:37.716Z,96121.72
2018-11-03T22:33:03.706Z,96127.96
2018-11-03T22:35:29.712Z,96127.17
2018-11-03T22:37:55.721Z,96128.31
2018-11-03T22:40:21.731Z,96126.38
2018-11-03T22:42:47.744Z,96121.86
2018-11-03T22:45:13.734Z,96115.13
2018-11-03T22:47:39.739Z,96117.66
2018-11-03T22:50:05.755Z,96116.77
2018-11-03T22:52:31.793Z,96112.97
2018-11-03T22:54:57.774Z,96113.12
2018-11-03T22:57:23.790Z,96108.77
2018-11-03T22:59:49.785Z,96111.25
2018-11-03T23:02:15.793Z,96102.37
2018-11-03T23:04:41.776Z,96106.41
2018-11-03T23:07:07.761Z,96099.95
2018-11-03T23:09:33.783Z,96096.53
2018-11-03T23:11:59.773Z,96101.36
2018-11-03T23:14:25.756Z,96095.71
2018-11-03T23:16:51.775Z,96095.45
2018-11-03T23:19:17.819Z,96092.88
2018-11-03T23:21:43.760Z,96097.01
2018-11-03T23:24:09.774Z,96098.53
2018-11-03T23:26:35.778Z,96097.34
2018-11-03T23:29:01.799Z,96096.30
2018-11-03T23:31:27.805Z,96099.83
2018-11-03T23:33:53.812Z,96097.41
2018-11-03T23:36:19.801Z,96099.93
2018-11-03T23:38:45.779Z,96096.22
2018-11-03T23:41:11.826Z,96101.45
2018-11-03T23:43:37.834Z,96097.51
2018-11-03T23:46:03.816Z,96097.33
2018-11-03T23:48:29.856Z,96098.88
2018-11-03T23:50:55.870Z,96095.47
2018-11-03T23:53:21.934Z,96098.22
2018-11-03T23:55:47.880Z,96098.95
2018-11-03T23:58:13.864Z,96100.07
